Bemidji, Minnesota
Current Conditions -  °F | °C
As of 12:53 PM on Sunday 23 Nov 2014 (Local Time) from KBJI Reporting Station
Overcast Overcast  
Wind Chill:   Ceiling: 3200
Heat Index:   Visibility: 7mi
Dew Point:   Wind: 3mph
Humidity: 81%   Direction: 220°SW
Pressure: 29.39"   Gusts: NA
Location:  47.47°N, 94.88°W
Report Text: KBJI 231853Z AUTO 22003KT 7SM SCT025 BKN032 OVC060 04/01 A2939 RMK AO2 T00350005
Loading
Personal Weather Stations






























Interactive Weather Map New forecast layout! Learn more

10-Day Weather Forecast

Advertisements
Track Severe Weather on mobile